Christchurch, New Zealand

10:11 PM NZDT on October 23, 2014 (GMT +1300)
Christchurch International | Change Station
CLOSE
Current Station
Airport
Location: Christchurch,
Elevation: 125 ft
Nearby Weather Stations

Elev 125 ft 43.48 °S, 172.55 °E | Updated 11 minutes ago

Clear
Clear
61 °F
Feels Like 61 °F
N
8
Wind Variable Wind from West

Today
High -- | Low -- °F
--% Chance of Precip.
Yesterday
High -- | Low -- °F
Precip. -- in
6:26 AM 8:03 PM
Waning Crescent, 0% visible
Pressure 29.62 in
Visibility 6.2 miles
Clouds
Dew Point 34 °F
Humidity 36%
Rainfall 0.00 in
Snow Depth Not available.
UV Not available.
Pollen Not available.
Air Quality Not available.
Flu Activity Not available.
METAR NZCH 230900Z AUTO 28007KT 9999 NCD 16/01 Q1003 BECMG FM0930 23018G25KT

More Conditions Fewer Conditions

Pressure 29.62 in
Visibility 6.2 miles
Clouds
Dew Point 34 °F
Humidity 36%
Rainfall 0.00 in
Snow Depth Not available.
UV Not available.
Pollen Not available.
Air Quality Not available.
Flu Activity Not available.
METAR NZCH 230900Z AUTO 28007KT 9999 NCD 16/01 Q1003 BECMG FM0930 23018G25KT

More Conditions Fewer Conditions

10-Day Weather Forecast

Almanac

Astronomy

Oct. 23, 2014 Rise Set
Actual Time 6:26 AM NZDT 8:03 PM NZDT
Civil Twilight 5:56 AM NZDT 8:33 PM NZDT
Nautical Twilight 5:19 AM NZDT 9:09 PM NZDT
Astronomical Twilight 4:40 AM NZDT 9:49 PM NZDT
Moon 5:57 AM NZDT 7:17 PM NZDT
Length of Visible Light 14h 37m
Length of Day
13h 36m
Tomorrow will be 2m 51s longer.
Waning Crescent, 0% of the Moon is Illuminated
Today
Waning Crescent
Oct 23
New
Oct 30
First Quarter
Nov 6
Full
Nov 14
Last Quarter

Yesterday's Extremes

Country Highs Country Lows

Community

WunderPhotos

Upload Photos

1,764,199 photos uploaded!

Nearby

Snow Depth

Not available.

Earthquake Activity

City Distance Mag. Time & Date
No recent earthquake activity has been reported nearby.
Minimum magnitude displayed is 2.5.

Coastal Water Temperatures

Place Temperature
No Stations Reporting

Nearby Weather Stations